Time,TemperatureF,DewpointF,PressureIn,WindDirection,WindDirectionDegrees,WindSpeedMPH,WindSpeedGustMPH,Humidity,HourlyPrecipIn,Conditions,Clouds,dailyrainin,SoftwareType,DateUTC
2013-07-19 00:01:00,85.5,69.0,30.05,SW,225,0.7,1.6,58,0.00,,,0.00,pywws,2013-07-19 04:01:00,
2013-07-19 00:02:00,85.5,69.0,30.05,NW,315,0.7,1.6,58,0.00,,,0.00,pywws,2013-07-19 04:02:00,
2013-07-19 00:03:00,85.5,69.0,30.05,North,0,0.0,1.6,58,0.00,,,0.00,pywws,2013-07-19 04:03:00,
2013-07-19 00:09:00,85.8,69.3,30.05,WNW,292,0.7,1.6,58,0.00,,,0.00,pywws,2013-07-19 04:09:00,
2013-07-19 00:11:00,86.0,69.0,30.05,NW,315,2.2,3.8,57,0.00,,,0.00,pywws,2013-07-19 04:11:00,
2013-07-19 00:17:00,86.2,69.1,30.05,SW,225,6.9,8.3,57,0.00,,,0.00,pywws,2013-07-19 04:17:00,
2013-07-19 00:23:00,86.4,69.3,30.05,SW,225,2.2,3.1,57,0.00,,,0.00,pywws,2013-07-19 04:23:00,
2013-07-19 00:28:00,86.4,69.3,30.05,South,180,3.1,4.5,57,0.00,,,0.00,pywws,2013-07-19 04:28:00,
2013-07-19 00:34:00,86.4,69.3,30.05,SW,225,3.1,3.8,57,0.00,,,0.00,pywws,2013-07-19 04:34:00,
2013-07-19 00:39:00,86.4,69.3,30.06,SW,225,1.6,2.2,57,0.00,,,0.00,pywws,2013-07-19 04:39:00,
2013-07-19 00:45:00,86.4,69.3,30.06,SW,225,0.7,1.6,57,0.00,,,0.00,pywws,2013-07-19 04:45:00,
2013-07-19 00:51:00,86.4,69.3,30.06,WSW,248,0.7,1.6,57,0.00,,,0.00,pywws,2013-07-19 04:51:00,
2013-07-19 00:56:00,86.0,69.0,30.06,NE,45,1.6,2.2,57,0.00,,,0.00,pywws,2013-07-19 04:56:00,
2013-07-19 01:02:00,86.0,69.0,30.06,SW,225,3.1,4.5,57,0.00,,,0.00,pywws,2013-07-19 05:02:00,
2013-07-19 01:07:00,86.0,69.0,30.06,West,270,1.6,3.1,57,0.00,,,0.00,pywws,2013-07-19 05:07:00,
2013-07-19 01:13:00,85.8,69.3,30.06,SW,225,1.6,3.1,58,0.00,,,0.00,pywws,2013-07-19 05:13:00,
2013-07-19 01:19:00,85.8,69.3,30.06,SE,135,0.7,1.6,58,0.00,,,0.00,pywws,2013-07-19 05:19:00,
2013-07-19 01:24:00,85.6,69.1,30.05,East,90,0.0,0.7,58,0.00,,,0.00,pywws,2013-07-19 05:24:00,
2013-07-19 01:30:00,85.5,69.5,30.05,SW,225,0.7,1.6,59,0.00,,,0.00,pywws,2013-07-19 05:30:00,
2013-07-19 01:35:00,85.1,69.1,30.05,SW,225,0.0,1.6,59,0.00,,,0.00,pywws,2013-07-19 05:35:00,
2013-07-19 01:41:00,84.9,69.0,30.05,SW,225,2.2,3.8,59,0.00,,,0.00,pywws,2013-07-19 05:41:00,
2013-07-19 01:47:00,84.6,69.1,30.05,NW,315,0.7,1.6,60,0.00,,,0.00,pywws,2013-07-19 05:47:00,
2013-07-19 01:52:00,84.4,68.9,30.05,SW,225,0.7,1.6,60,0.00,,,0.00,pywws,2013-07-19 05:52:00,
2013-07-19 01:58:00,84.4,68.9,30.05,ENE,68,0.0,1.6,60,0.00,,,0.00,pywws,2013-07-19 05:58:00,
2013-07-19 02:03:00,84.4,68.9,30.05,SE,135,0.0,0.7,60,0.00,,,0.00,pywws,2013-07-19 06:03:00,
2013-07-19 02:09:00,84.0,69.6,30.05,East,90,0.0,0.7,62,0.00,,,0.00,pywws,2013-07-19 06:09:00,
2013-07-19 02:15:00,83.8,69.4,30.05,SE,135,0.0,0.7,62,0.00,,,0.00,pywws,2013-07-19 06:15:00,
2013-07-19 02:20:00,83.7,69.7,30.05,SE,135,0.0,0.0,63,0.00,,,0.00,pywws,2013-07-19 06:20:00,
2013-07-19 02:26:00,83.3,69.4,30.05,North,0,0.0,0.7,63,0.00,,,0.00,pywws,2013-07-19 06:26:00,
2013-07-19 02:31:00,83.3,69.8,30.05,NW,315,0.0,0.0,64,0.00,,,0.00,pywws,2013-07-19 06:31:00,
2013-07-19 02:37:00,83.3,69.8,30.05,SW,225,0.0,0.0,64,0.00,,,0.00,pywws,2013-07-19 06:37:00,
2013-07-19 02:43:00,83.1,69.7,30.05,SW,225,0.0,0.0,64,0.00,,,0.00,pywws,2013-07-19 06:43:00,
2013-07-19 02:49:00,82.9,69.5,30.05,SW,225,0.0,0.7,64,0.00,,,0.00,pywws,2013-07-19 06:49:00,
2013-07-19 02:55:00,82.8,69.3,30.04,North,0,0.0,0.0,64,0.00,,,0.00,pywws,2013-07-19 06:55:00,
2013-07-19 03:00:00,82.6,69.6,30.04,SE,135,0.0,0.0,65,0.00,,,0.00,pywws,2013-07-19 07:00:00,
2013-07-19 03:06:00,82.4,69.4,30.04,North,0,0.0,0.0,65,0.00,,,0.00,pywws,2013-07-19 07:06:00,
2013-07-19 03:11:00,82.0,69.1,30.05,SW,225,0.7,1.6,65,0.00,,,0.00,pywws,2013-07-19 07:11:00,
2013-07-19 03:17:00,82.0,69.1,30.04,South,180,0.0,0.0,65,0.00,,,0.00,pywws,2013-07-19 07:17:00,
2013-07-19 03:23:00,81.7,68.7,30.04,East,90,0.7,1.6,65,0.00,,,0.00,pywws,2013-07-19 07:23:00,
2013-07-19 03:28:00,81.7,69.2,30.05,SE,135,0.0,0.0,66,0.00,,,0.00,pywws,2013-07-19 07:28:00,
2013-07-19 03:34:00,81.5,69.0,30.05,West,270,0.0,0.0,66,0.00,,,0.00,pywws,2013-07-19 07:34:00,
2013-07-19 03:39:00,81.5,69.0,30.04,SW,225,0.7,1.6,66,0.00,,,0.00,pywws,2013-07-19 07:39:00,
2013-07-19 03:45:00,81.5,69.0,30.04,SW,225,0.0,1.6,66,0.00,,,0.00,pywws,2013-07-19 07:45:00,
2013-07-19 03:51:00,81.3,68.9,30.04,South,180,0.7,1.6,66,0.00,,,0.00,pywws,2013-07-19 07:51:00,
2013-07-19 03:56:00,81.3,68.9,30.04,SE,135,3.1,4.5,66,0.00,,,0.00,pywws,2013-07-19 07:56:00,
2013-07-19 04:02:00,81.1,68.7,30.04,West,270,1.6,3.8,66,0.00,,,0.00,pywws,2013-07-19 08:02:00,
2013-07-19 04:07:00,81.3,69.3,30.04,SW,225,0.7,2.2,67,0.00,,,0.00,pywws,2013-07-19 08:07:00,
2013-07-19 04:13:00,81.3,69.3,30.04,West,270,0.7,3.1,67,0.00,,,0.00,pywws,2013-07-19 08:13:00,
2013-07-19 04:19:00,81.3,69.3,30.03,West,270,2.2,4.5,67,0.00,,,0.00,pywws,2013-07-19 08:19:00,
2013-07-19 04:24:00,81.3,68.9,30.04,West,270,1.6,2.2,66,0.00,,,0.00,pywws,2013-07-19 08:24:00,
2013-07-19 04:30:00,81.5,69.0,30.03,West,270,0.0,0.7,66,0.00,,,0.00,pywws,2013-07-19 08:30:00,
2013-07-19 04:35:00,81.5,69.0,30.04,West,270,0.7,1.6,66,0.00,,,0.00,pywws,2013-07-19 08:35:00,
2013-07-19 04:41:00,81.3,68.9,30.04,SW,225,1.6,3.1,66,0.00,,,0.00,pywws,2013-07-19 08:41:00,
2013-07-19 04:47:00,81.5,69.0,30.03,SSW,202,2.2,4.5,66,0.00,,,0.00,pywws,2013-07-19 08:47:00,
2013-07-19 04:53:00,81.3,68.9,30.03,South,180,0.7,1.6,66,0.00,,,0.00,pywws,2013-07-19 08:53:00,
2013-07-19 04:59:00,81.3,68.9,30.03,South,180,0.7,1.6,66,0.00,,,0.00,pywws,2013-07-19 08:59:00,
2013-07-19 05:04:00,81.3,68.9,30.03,SW,225,0.0,0.0,66,0.00,,,0.00,pywws,2013-07-19 09:04:00,
2013-07-19 05:10:00,81.1,68.7,30.03,West,270,1.6,2.2,66,0.00,,,0.00,pywws,2013-07-19 09:10:00,
2013-07-19 05:15:00,81.0,68.9,30.03,South,180,0.7,2.2,67,0.00,,,0.00,pywws,2013-07-19 09:15:00,
2013-07-19 05:21:00,80.8,68.8,30.03,South,180,0.7,2.2,67,0.00,,,0.00,pywws,2013-07-19 09:21:00,
2013-07-19 05:27:00,80.6,68.6,30.03,West,270,0.7,1.6,67,0.00,,,0.00,pywws,2013-07-19 09:27:00,
2013-07-19 05:32:00,80.6,68.6,30.03,South,180,0.7,1.6,67,0.00,,,0.00,pywws,2013-07-19 09:32:00,
2013-07-19 05:38:00,80.4,68.9,30.03,SW,225,0.7,1.6,68,0.00,,,0.00,pywws,2013-07-19 09:38:00,
2013-07-19 05:43:00,80.2,68.7,30.03,SW,225,0.0,1.6,68,0.00,,,0.00,pywws,2013-07-19 09:43:00,
2013-07-19 05:49:00,80.2,69.1,30.03,South,180,0.0,1.6,69,0.00,,,0.00,pywws,2013-07-19 09:49:00,
2013-07-19 05:55:00,80.1,69.0,30.03,SW,225,2.2,3.8,69,0.00,,,0.00,pywws,2013-07-19 09:55:00,
2013-07-19 06:00:00,80.1,69.0,30.03,SW,225,3.8,6.0,69,0.00,,,0.00,pywws,2013-07-19 10:00:00,
2013-07-19 06:06:00,80.2,68.7,30.03,SW,225,2.2,4.5,68,0.00,,,0.00,pywws,2013-07-19 10:06:00,
2013-07-19 06:11:00,80.2,68.7,30.03,SW,225,1.6,3.8,68,0.00,,,0.00,pywws,2013-07-19 10:11:00,
2013-07-19 06:17:00,80.2,68.7,30.03,West,270,0.7,1.6,68,0.00,,,0.00,pywws,2013-07-19 10:17:00,
2013-07-19 06:23:00,80.2,68.7,30.03,South,180,1.6,3.1,68,0.00,,,0.00,pywws,2013-07-19 10:23:00,
2013-07-19 06:28:00,80.4,68.9,30.03,SW,225,0.7,2.2,68,0.00,,,0.00,pywws,2013-07-19 10:28:00,
2013-07-19 06:34:00,80.4,68.9,30.03,SW,225,0.7,2.2,68,0.00,,,0.00,pywws,2013-07-19 10:34:00,
2013-07-19 06:39:00,80.4,68.9,30.03,South,180,0.7,1.6,68,0.00,,,0.00,pywws,2013-07-19 10:39:00,
2013-07-19 06:45:00,80.4,68.9,30.03,SW,225,1.6,2.2,68,0.00,,,0.00,pywws,2013-07-19 10:45:00,
2013-07-19 06:51:00,80.4,68.4,30.03,West,270,1.6,2.2,67,0.00,,,0.00,pywws,2013-07-19 10:51:00,
2013-07-19 06:56:00,80.6,68.6,30.03,SW,225,0.7,1.6,67,0.00,,,0.00,pywws,2013-07-19 10:56:00,
2013-07-19 07:02:00,80.8,68.8,30.03,SW,225,1.6,3.8,67,0.00,,,0.00,pywws,2013-07-19 11:02:00,
2013-07-19 07:07:00,80.8,68.3,30.03,SW,225,2.2,3.1,66,0.00,,,0.00,pywws,2013-07-19 11:07:00,
2013-07-19 07:13:00,81.1,68.7,30.03,SW,225,0.0,0.7,66,0.00,,,0.00,pywws,2013-07-19 11:13:00,
2013-07-19 07:19:00,81.3,68.9,30.04,SSW,202,1.6,2.2,66,0.00,,,0.00,pywws,2013-07-19 11:19:00,
2013-07-19 07:24:00,81.7,69.2,30.04,West,270,1.6,2.2,66,0.00,,,0.00,pywws,2013-07-19 11:24:00,
2013-07-19 07:30:00,81.9,68.9,30.03,West,270,0.7,2.2,65,0.00,,,0.00,pywws,2013-07-19 11:30:00,
2013-07-19 07:35:00,82.0,69.5,30.04,SW,225,3.1,5.4,66,0.00,,,0.00,pywws,2013-07-19 11:35:00,
2013-07-19 07:41:00,82.6,69.6,30.04,SW,225,3.1,4.5,65,0.00,,,0.00,pywws,2013-07-19 11:41:00,
2013-07-19 07:47:00,82.9,69.9,30.04,SW,225,2.2,4.5,65,0.00,,,0.00,pywws,2013-07-19 11:47:00,
2013-07-19 07:52:00,83.3,69.4,30.04,West,270,1.6,3.1,63,0.00,,,0.00,pywws,2013-07-19 11:52:00,
2013-07-19 07:58:00,83.7,69.7,30.04,SW,225,3.8,6.0,63,0.00,,,0.00,pywws,2013-07-19 11:58:00,
2013-07-19 08:03:00,83.8,69.4,30.04,NW,315,2.2,5.4,62,0.00,,,0.00,pywws,2013-07-19 12:03:00,
2013-07-19 08:09:00,84.2,69.3,30.04,SW,225,2.2,3.8,61,0.00,,,0.00,pywws,2013-07-19 12:09:00,
2013-07-19 08:15:00,84.6,69.6,30.04,ESE,112,0.7,1.6,61,0.00,,,0.00,pywws,2013-07-19 12:15:00,
2013-07-19 08:20:00,84.9,69.9,30.03,West,270,3.1,5.4,61,0.00,,,0.00,pywws,2013-07-19 12:20:00,
2013-07-19 08:26:00,85.3,69.3,30.04,NW,315,0.0,1.6,59,0.00,,,0.00,pywws,2013-07-19 12:26:00,
2013-07-19 08:31:00,85.6,70.1,30.04,North,0,2.2,3.1,60,0.00,,,0.00,pywws,2013-07-19 12:31:00,
2013-07-19 08:37:00,86.0,69.0,30.04,WSW,248,3.1,5.4,57,0.00,,,0.00,pywws,2013-07-19 12:37:00,
2013-07-19 08:43:00,86.2,69.6,30.04,West,270,1.6,2.2,58,0.00,,,0.00,pywws,2013-07-19 12:43:00,
2013-07-19 08:48:00,86.5,70.0,30.03,SW,225,1.6,3.1,58,0.00,,,0.00,pywws,2013-07-19 12:48:00,
2013-07-19 08:54:00,86.9,69.8,30.03,West,270,3.8,6.0,57,0.00,,,0.00,pywws,2013-07-19 12:54:00,
2013-07-19 08:59:00,87.1,70.0,30.03,West,270,3.1,3.8,57,0.00,,,0.00,pywws,2013-07-19 12:59:00,
2013-07-19 09:05:00,87.6,69.9,30.04,West,270,4.5,6.9,56,0.00,,,0.00,pywws,2013-07-19 13:05:00,
2013-07-19 09:11:00,88.0,69.8,30.04,SW,225,2.2,3.8,55,0.00,,,0.00,pywws,2013-07-19 13:11:00,
2013-07-19 09:16:00,88.5,70.3,30.03,West,270,4.5,5.4,55,0.00,,,0.00,pywws,2013-07-19 13:16:00,
2013-07-19 09:22:00,88.7,69.9,30.03,West,270,3.1,5.4,54,0.00,,,0.00,pywws,2013-07-19 13:22:00,
2013-07-19 09:27:00,89.2,70.4,30.03,West,270,4.5,7.6,54,0.00,,,0.00,pywws,2013-07-19 13:27:00,
2013-07-19 09:33:00,89.8,70.3,30.03,West,270,4.5,6.0,53,0.00,,,0.00,pywws,2013-07-19 13:33:00,
2013-07-19 09:39:00,90.0,69.9,30.03,WNW,292,2.2,3.8,52,0.00,,,0.00,pywws,2013-07-19 13:39:00,
2013-07-19 09:44:00,90.3,70.8,30.03,NW,315,3.8,5.4,53,0.00,,,0.00,pywws,2013-07-19 13:44:00,
2013-07-19 09:50:00,90.7,70.6,30.03,NW,315,1.6,2.2,52,0.00,,,0.00,pywws,2013-07-19 13:50:00,
2013-07-19 09:55:00,90.9,71.3,30.03,NW,315,0.0,0.7,53,0.00,,,0.00,pywws,2013-07-19 13:55:00,
2013-07-19 10:01:00,91.6,72.0,30.02,NNE,22,0.0,1.6,53,0.00,,,0.00,pywws,2013-07-19 14:01:00,
2013-07-19 10:07:00,92.7,73.0,30.02,West,270,4.5,6.0,53,0.00,,,0.00,pywws,2013-07-19 14:07:00,
2013-07-19 10:12:00,93.2,72.3,30.03,NW,315,5.4,6.9,51,0.00,,,0.00,pywws,2013-07-19 14:12:00,
2013-07-19 10:18:00,93.2,71.7,30.03,NW,315,4.5,6.9,50,0.00,,,0.00,pywws,2013-07-19 14:18:00,
2013-07-19 10:23:00,93.4,72.5,30.03,West,270,3.1,4.5,51,0.00,,,0.00,pywws,2013-07-19 14:23:00,
2013-07-19 10:29:00,93.7,72.8,30.02,SW,225,3.1,4.5,51,0.00,,,0.00,pywws,2013-07-19 14:29:00,
2013-07-19 10:35:00,94.1,72.6,30.02,SW,225,5.4,7.6,50,0.00,,,0.00,pywws,2013-07-19 14:35:00,
2013-07-19 10:40:00,94.3,72.7,30.02,West,270,3.1,5.4,50,0.00,,,0.00,pywws,2013-07-19 14:40:00,
2013-07-19 10:46:00,94.5,72.9,30.02,NNW,338,5.4,7.6,50,0.00,,,0.00,pywws,2013-07-19 14:46:00,
2013-07-19 10:51:00,94.5,72.3,30.02,NW,315,7.6,9.2,49,0.00,,,0.00,pywws,2013-07-19 14:51:00,
2013-07-19 10:57:00,94.5,72.3,30.02,SW,225,4.5,6.0,49,0.00,,,0.00,pywws,2013-07-19 14:57:00,
2013-07-19 11:03:00,94.8,73.2,30.02,SW,225,6.0,8.3,50,0.00,,,0.00,pywws,2013-07-19 15:03:00,
2013-07-19 11:08:00,95.2,72.3,30.01,NE,45,6.9,8.3,48,0.00,,,0.00,pywws,2013-07-19 15:08:00,
2013-07-19 11:14:00,95.4,73.1,30.01,NW,315,5.4,8.3,49,0.00,,,0.00,pywws,2013-07-19 15:14:00,
2013-07-19 11:19:00,95.5,72.7,30.02,SW,225,6.0,9.2,48,0.00,,,0.00,pywws,2013-07-19 15:19:00,
2013-07-19 11:25:00,95.4,72.5,30.02,West,270,6.0,7.6,48,0.00,,,0.00,pywws,2013-07-19 15:25:00,
2013-07-19 11:31:00,95.4,72.5,30.02,NW,315,3.8,6.9,48,0.00,,,0.00,pywws,2013-07-19 15:31:00,
2013-07-19 11:36:00,95.5,72.7,30.01,NW,315,4.5,8.3,48,0.00,,,0.00,pywws,2013-07-19 15:36:00,
2013-07-19 11:42:00,95.9,72.4,30.01,NW,315,5.4,8.3,47,0.00,,,0.00,pywws,2013-07-19 15:42:00,
2013-07-19 11:47:00,96.3,72.7,30.00,NE,45,2.2,3.8,47,0.00,,,0.00,pywws,2013-07-19 15:47:00,
2013-07-19 11:53:00,96.1,72.5,30.00,NW,315,5.4,7.6,47,0.00,,,0.00,pywws,2013-07-19 15:53:00,
2013-07-19 11:59:00,95.9,72.4,30.00,South,180,4.5,6.9,47,0.00,,,0.00,pywws,2013-07-19 15:59:00,
2013-07-19 12:04:00,96.6,73.0,30.00,East,90,4.5,6.9,47,0.00,,,0.00,pywws,2013-07-19 16:04:00,
2013-07-19 12:10:00,97.0,72.1,30.00,SW,225,6.0,10.7,45,0.00,,,0.00,pywws,2013-07-19 16:10:00,
2013-07-19 12:15:00,96.6,72.4,30.00,West,270,3.8,5.4,46,0.00,,,0.00,pywws,2013-07-19 16:15:00,
2013-07-19 12:21:00,96.6,73.0,29.99,West,270,6.0,9.2,47,0.00,,,0.00,pywws,2013-07-19 16:21:00,
2013-07-19 12:27:00,97.0,72.7,29.99,NW,315,9.2,13.6,46,0.00,,,0.00,pywws,2013-07-19 16:27:00,
2013-07-19 12:32:00,97.0,72.1,29.99,SW,225,6.9,12.1,45,0.00,,,0.00,pywws,2013-07-19 16:32:00,
2013-07-19 12:38:00,96.8,72.5,29.98,NW,315,3.1,5.4,46,0.00,,,0.00,pywws,2013-07-19 16:38:00,
2013-07-19 12:43:00,97.2,71.6,29.98,NW,315,5.4,7.6,44,0.00,,,0.00,pywws,2013-07-19 16:43:00,
2013-07-19 12:49:00,97.0,72.1,29.98,West,270,3.1,6.0,45,0.00,,,0.00,pywws,2013-07-19 16:49:00,
2013-07-19 12:55:00,97.3,72.4,29.98,West,270,4.5,6.9,45,0.00,,,0.00,pywws,2013-07-19 16:55:00,
2013-07-19 13:00:00,97.9,72.9,29.98,SW,225,7.6,13.0,45,0.00,,,0.00,pywws,2013-07-19 17:00:00,
2013-07-19 13:06:00,97.7,72.0,29.98,SW,225,6.9,10.7,44,0.00,,,0.00,pywws,2013-07-19 17:06:00,
2013-07-19 13:11:00,97.7,72.0,29.98,WNW,292,5.4,7.6,44,0.00,,,0.00,pywws,2013-07-19 17:11:00,
2013-07-19 13:17:00,97.0,71.4,29.97,SSE,158,9.8,11.4,44,0.00,,,0.00,pywws,2013-07-19 17:17:00,
2013-07-19 13:23:00,96.8,71.2,29.97,NW,315,5.4,10.7,44,0.00,,,0.00,pywws,2013-07-19 17:23:00,
2013-07-19 13:28:00,96.8,71.9,29.97,SW,225,6.0,9.2,45,0.00,,,0.00,pywws,2013-07-19 17:28:00,
2013-07-19 13:34:00,97.2,72.2,29.97,West,270,5.4,8.3,45,0.00,,,0.00,pywws,2013-07-19 17:34:00,
2013-07-19 13:39:00,97.3,72.4,29.96,West,270,5.4,6.9,45,0.00,,,0.00,pywws,2013-07-19 17:39:00,
2013-07-19 13:45:00,97.2,72.2,29.97,SW,225,6.0,8.3,45,0.00,,,0.00,pywws,2013-07-19 17:45:00,
2013-07-19 13:51:00,96.8,71.9,29.97,West,270,10.7,17.5,45,0.00,,,0.00,pywws,2013-07-19 17:51:00,
2013-07-19 13:56:00,97.2,71.6,29.96,SW,225,6.9,11.4,44,0.00,,,0.00,pywws,2013-07-19 17:56:00,
2013-07-19 14:02:00,97.5,71.9,29.96,West,270,6.0,9.2,44,0.00,,,0.00,pywws,2013-07-19 18:02:00,
2013-07-19 14:07:00,97.3,71.7,29.96,SW,225,3.8,6.0,44,0.00,,,0.00,pywws,2013-07-19 18:07:00,
2013-07-19 14:13:00,97.5,71.9,29.96,WSW,248,4.5,6.0,44,0.00,,,0.00,pywws,2013-07-19 18:13:00,
2013-07-19 14:19:00,97.3,71.7,29.95,South,180,5.4,8.3,44,0.00,,,0.00,pywws,2013-07-19 18:19:00,
2013-07-19 14:24:00,97.7,71.4,29.96,WSW,248,9.2,13.6,43,0.00,,,0.00,pywws,2013-07-19 18:24:00,
2013-07-19 14:30:00,97.7,71.4,29.95,West,270,5.4,9.8,43,0.00,,,0.00,pywws,2013-07-19 18:30:00,
2013-07-19 14:35:00,97.9,71.5,29.95,NE,45,6.9,9.8,43,0.00,,,0.00,pywws,2013-07-19 18:35:00,
2013-07-19 14:41:00,98.2,72.5,29.95,South,180,7.6,13.0,44,0.00,,,0.00,pywws,2013-07-19 18:41:00,
2013-07-19 14:47:00,98.1,71.7,29.95,NW,315,12.1,18.3,43,0.00,,,0.00,pywws,2013-07-19 18:47:00,
2013-07-19 14:52:00,98.2,71.8,29.94,West,270,6.9,9.2,43,0.00,,,0.00,pywws,2013-07-19 18:52:00,
2013-07-19 14:58:00,98.1,71.7,29.94,NW,315,9.2,12.1,43,0.00,,,0.00,pywws,2013-07-19 18:58:00,
2013-07-19 15:03:00,98.1,71.7,29.93,NE,45,11.4,15.2,43,0.00,,,0.00,pywws,2013-07-19 19:03:00,
2013-07-19 15:09:00,98.1,71.7,29.93,South,180,6.9,10.7,43,0.00,,,0.00,pywws,2013-07-19 19:09:00,
2013-07-19 15:15:00,98.2,71.8,29.93,SW,225,8.3,11.4,43,0.00,,,0.00,pywws,2013-07-19 19:15:00,
2013-07-19 15:20:00,97.9,71.5,29.93,WSW,248,9.8,11.4,43,0.00,,,0.00,pywws,2013-07-19 19:20:00,
2013-07-19 15:26:00,98.2,71.8,29.93,NW,315,8.3,13.0,43,0.00,,,0.00,pywws,2013-07-19 19:26:00,
2013-07-19 15:31:00,98.4,72.0,29.92,SW,225,6.9,11.4,43,0.00,,,0.00,pywws,2013-07-19 19:31:00,
2013-07-19 15:37:00,98.1,71.7,29.92,SW,225,6.9,9.8,43,0.00,,,0.00,pywws,2013-07-19 19:37:00,
2013-07-19 15:43:00,98.2,71.8,29.92,WSW,248,6.9,9.8,43,0.00,,,0.00,pywws,2013-07-19 19:43:00,
2013-07-19 15:48:00,98.4,72.0,29.92,SW,225,6.9,10.7,43,0.00,,,0.00,pywws,2013-07-19 19:48:00,
2013-07-19 15:54:00,98.4,72.0,29.92,SW,225,7.6,10.7,43,0.00,,,0.00,pywws,2013-07-19 19:54:00,
2013-07-19 15:59:00,98.4,71.3,29.91,South,180,12.1,15.2,42,0.00,,,0.00,pywws,2013-07-19 19:59:00,
2013-07-19 16:05:00,98.2,71.1,29.91,West,270,9.8,13.0,42,0.00,,,0.00,pywws,2013-07-19 20:05:00,
2013-07-19 16:11:00,98.4,71.3,29.90,WNW,292,5.4,10.7,42,0.00,,,0.00,pywws,2013-07-19 20:11:00,
2013-07-19 16:16:00,98.2,71.1,29.90,SW,225,10.7,21.2,42,0.00,,,0.00,pywws,2013-07-19 20:16:00,
2013-07-19 16:22:00,98.1,71.0,29.90,NW,315,8.3,11.4,42,0.00,,,0.00,pywws,2013-07-19 20:22:00,
2013-07-19 16:27:00,97.9,70.8,29.90,SW,225,4.5,10.7,42,0.00,,,0.00,pywws,2013-07-19 20:27:00,
2013-07-19 16:33:00,97.7,70.7,29.90,West,270,6.9,12.1,42,0.00,,,0.00,pywws,2013-07-19 20:33:00,
2013-07-19 16:39:00,97.9,70.8,29.90,SW,225,9.8,15.2,42,0.00,,,0.00,pywws,2013-07-19 20:39:00,
2013-07-19 16:44:00,97.9,70.8,29.90,NW,315,9.8,15.9,42,0.00,,,0.00,pywws,2013-07-19 20:44:00,
2013-07-19 16:50:00,97.9,70.8,29.89,WSW,248,8.3,15.2,42,0.00,,,0.00,pywws,2013-07-19 20:50:00,
2013-07-19 16:55:00,97.9,70.8,29.89,West,270,7.6,11.4,42,0.00,,,0.00,pywws,2013-07-19 20:55:00,
2013-07-19 17:01:00,97.7,70.7,29.89,West,270,3.8,7.6,42,0.00,,,0.00,pywws,2013-07-19 21:01:00,
2013-07-19 17:07:00,97.5,70.5,29.89,SW,225,7.6,10.7,42,0.00,,,0.00,pywws,2013-07-19 21:07:00,
2013-07-19 17:12:00,97.3,70.3,29.89,SW,225,8.3,15.9,42,0.00,,,0.00,pywws,2013-07-19 21:12:00,
2013-07-19 17:18:00,97.2,70.9,29.88,SE,135,6.0,13.0,43,0.00,,,0.00,pywws,2013-07-19 21:18:00,
2013-07-19 17:23:00,97.2,70.9,29.89,SW,225,7.6,10.7,43,0.00,,,0.00,pywws,2013-07-19 21:23:00,
2013-07-19 17:29:00,97.2,70.9,29.88,ESE,112,4.5,8.3,43,0.00,,,0.00,pywws,2013-07-19 21:29:00,
2013-07-19 17:35:00,97.0,70.7,29.88,NW,315,6.9,10.7,43,0.00,,,0.00,pywws,2013-07-19 21:35:00,
2013-07-19 17:40:00,96.8,69.9,29.88,South,180,5.4,9.8,42,0.00,,,0.00,pywws,2013-07-19 21:40:00,
2013-07-19 17:46:00,96.8,70.6,29.87,NW,315,6.0,8.3,43,0.00,,,0.00,pywws,2013-07-19 21:46:00,
2013-07-19 17:51:00,96.6,71.1,29.88,NW,315,3.8,6.9,44,0.00,,,0.00,pywws,2013-07-19 21:51:00,
2013-07-19 17:57:00,96.4,70.9,29.88,WSW,248,4.5,7.6,44,0.00,,,0.00,pywws,2013-07-19 21:57:00,
2013-07-19 18:03:00,96.4,70.9,29.87,SW,225,6.9,11.4,44,0.00,,,0.00,pywws,2013-07-19 22:03:00,
2013-07-19 18:08:00,96.1,70.6,29.88,WSW,248,8.3,13.6,44,0.00,,,0.00,pywws,2013-07-19 22:08:00,
2013-07-19 18:14:00,95.7,70.3,29.88,NW,315,3.8,6.9,44,0.00,,,0.00,pywws,2013-07-19 22:14:00,
2013-07-19 18:20:00,95.7,70.3,29.88,SW,225,11.4,16.8,44,0.00,,,0.00,pywws,2013-07-19 22:20:00,
2013-07-19 18:26:00,95.5,70.1,29.88,SW,225,7.6,13.0,44,0.00,,,0.00,pywws,2013-07-19 22:26:00,
2013-07-19 18:31:00,95.5,70.1,29.88,West,270,8.3,13.0,44,0.00,,,0.00,pywws,2013-07-19 22:31:00,
2013-07-19 18:37:00,95.4,69.9,29.88,SW,225,7.6,13.6,44,0.00,,,0.00,pywws,2013-07-19 22:37:00,
2013-07-19 18:43:00,95.4,70.6,29.88,NW,315,4.5,7.6,45,0.00,,,0.00,pywws,2013-07-19 22:43:00,
2013-07-19 18:48:00,95.4,70.6,29.88,West,270,6.9,11.4,45,0.00,,,0.00,pywws,2013-07-19 22:48:00,
2013-07-19 18:54:00,95.4,69.9,29.89,West,270,5.4,7.6,44,0.00,,,0.00,pywws,2013-07-19 22:54:00,
2013-07-19 18:59:00,95.2,70.4,29.89,SW,225,6.0,9.8,45,0.00,,,0.00,pywws,2013-07-19 22:59:00,
2013-07-19 19:05:00,94.8,70.8,29.88,NW,315,11.4,18.3,46,0.00,,,0.00,pywws,2013-07-19 23:05:00,
2013-07-19 19:11:00,94.6,70.6,29.88,NW,315,9.8,15.2,46,0.00,,,0.00,pywws,2013-07-19 23:11:00,
2013-07-19 19:16:00,94.6,70.6,29.88,NNW,338,5.4,8.3,46,0.00,,,0.00,pywws,2013-07-19 23:16:00,
2013-07-19 19:22:00,94.6,70.6,29.88,West,270,4.5,6.0,46,0.00,,,0.00,pywws,2013-07-19 23:22:00,
2013-07-19 19:27:00,94.1,70.1,29.89,North,0,9.2,12.1,46,0.00,,,0.00,pywws,2013-07-19 23:27:00,
2013-07-19 19:33:00,93.7,69.8,29.89,West,270,6.9,12.1,46,0.00,,,0.00,pywws,2013-07-19 23:33:00,
2013-07-19 19:39:00,93.2,69.3,29.89,WSW,248,3.8,7.6,46,0.00,,,0.00,pywws,2013-07-19 23:39:00,
2013-07-19 19:45:00,92.8,70.2,29.89,SW,225,3.8,6.0,48,0.00,,,0.00,pywws,2013-07-19 23:45:00,
2013-07-19 19:51:00,92.7,70.1,29.89,NW,315,4.5,7.6,48,0.00,,,0.00,pywws,2013-07-19 23:51:00,
2013-07-19 19:56:00,92.3,69.7,29.89,West,270,7.6,13.0,48,0.00,,,0.00,pywws,2013-07-19 23:56:00,
2013-07-19 20:02:00,91.9,70.0,29.89,South,180,2.2,4.5,49,0.00,,,0.00,pywws,2013-07-20 00:02:00,
2013-07-19 20:07:00,91.8,69.8,29.89,WSW,248,3.8,6.0,49,0.00,,,0.00,pywws,2013-07-20 00:07:00,
2013-07-19 20:13:00,91.6,70.3,29.89,West,270,4.5,7.6,50,0.00,,,0.00,pywws,2013-07-20 00:13:00,
2013-07-19 20:19:00,91.6,70.3,29.89,South,180,3.1,4.5,50,0.00,,,0.00,pywws,2013-07-20 00:19:00,
2013-07-19 20:24:00,91.4,70.1,29.90,NW,315,6.0,9.2,50,0.00,,,0.00,pywws,2013-07-20 00:24:00,
2013-07-19 20:30:00,91.2,70.5,29.90,NW,315,2.2,6.0,51,0.00,,,0.00,pywws,2013-07-20 00:30:00,
2013-07-19 20:35:00,91.0,70.4,29.91,SW,225,2.2,4.5,51,0.00,,,0.00,pywws,2013-07-20 00:35:00,
2013-07-19 20:41:00,90.9,70.8,29.91,SW,225,3.1,4.5,52,0.00,,,0.00,pywws,2013-07-20 00:41:00,
2013-07-19 20:47:00,90.9,70.8,29.91,SW,225,2.2,3.8,52,0.00,,,0.00,pywws,2013-07-20 00:47:00,
2013-07-19 20:52:00,90.9,71.3,29.92,West,270,5.4,8.3,53,0.00,,,0.00,pywws,2013-07-20 00:52:00,
2013-07-19 20:58:00,90.5,71.0,29.91,West,270,6.0,9.2,53,0.00,,,0.00,pywws,2013-07-20 00:58:00,
2013-07-19 21:03:00,90.5,71.0,29.91,SW,225,6.0,9.2,53,0.00,,,0.00,pywws,2013-07-20 01:03:00,
2013-07-19 21:09:00,90.5,71.0,29.92,West,270,8.3,9.8,53,0.00,,,0.00,pywws,2013-07-20 01:09:00,
2013-07-19 21:15:00,90.5,71.5,29.91,NW,315,6.0,10.7,54,0.00,,,0.00,pywws,2013-07-20 01:15:00,
2013-07-19 21:20:00,90.3,71.4,29.92,West,270,3.1,3.8,54,0.00,,,0.00,pywws,2013-07-20 01:20:00,
2013-07-19 21:26:00,90.1,71.2,29.92,South,180,6.9,9.2,54,0.00,,,0.00,pywws,2013-07-20 01:26:00,
2013-07-19 21:27:00,90.1,71.2,29.92,WSW,248,6.0,10.7,54,0.00,,,0.00,pywws,2013-07-20 01:27:00,
2013-07-19 21:33:00,90.1,71.2,29.92,WNW,292,7.6,13.0,54,0.00,,,0.00,pywws,2013-07-20 01:33:00,
2013-07-19 21:39:00,90.0,71.0,29.93,South,180,4.5,9.8,54,0.00,,,0.00,pywws,2013-07-20 01:39:00,
2013-07-19 21:44:00,90.0,71.0,29.92,South,180,4.5,11.4,54,0.00,,,0.00,pywws,2013-07-20 01:44:00,
2013-07-19 21:50:00,89.8,70.9,29.92,SW,225,5.4,8.3,54,0.00,,,0.00,pywws,2013-07-20 01:50:00,
2013-07-19 21:55:00,89.6,70.7,29.91,SW,225,1.6,3.8,54,0.00,,,0.00,pywws,2013-07-20 01:55:00,
2013-07-19 22:01:00,89.6,71.3,29.91,South,180,7.6,13.0,55,0.00,,,0.00,pywws,2013-07-20 02:01:00,
2013-07-19 22:07:00,89.4,71.6,29.91,SW,225,9.8,13.0,56,0.00,,,0.00,pywws,2013-07-20 02:07:00,
2013-07-19 22:12:00,89.2,71.5,29.91,West,270,7.6,13.0,56,0.00,,,0.00,pywws,2013-07-20 02:12:00,
2013-07-19 22:18:00,89.2,72.0,29.91,NW,315,6.9,15.9,57,0.00,,,0.00,pywws,2013-07-20 02:18:00,
2013-07-19 22:23:00,89.1,71.3,29.91,SW,225,12.1,16.8,56,0.00,,,0.00,pywws,2013-07-20 02:23:00,
2013-07-19 22:29:00,88.9,70.6,29.91,NW,315,9.2,12.1,55,0.00,,,0.00,pywws,2013-07-20 02:29:00,
2013-07-19 22:35:00,88.9,70.0,29.91,SW,225,9.2,13.6,54,0.00,,,0.00,pywws,2013-07-20 02:35:00,
2013-07-19 22:40:00,88.7,69.9,29.91,WSW,248,6.9,12.1,54,0.00,,,0.00,pywws,2013-07-20 02:40:00,
2013-07-19 22:46:00,88.5,69.7,29.90,NW,315,6.0,10.7,54,0.00,,,0.00,pywws,2013-07-20 02:46:00,
2013-07-19 22:51:00,88.3,69.5,29.89,SW,225,5.4,8.3,54,0.00,,,0.00,pywws,2013-07-20 02:51:00,
2013-07-19 22:57:00,88.3,69.5,29.89,West,270,8.3,9.8,54,0.00,,,0.00,pywws,2013-07-20 02:57:00,
2013-07-19 23:03:00,88.2,69.9,29.89,NW,315,3.8,5.4,55,0.00,,,0.00,pywws,2013-07-20 03:03:00,
2013-07-19 23:08:00,88.0,69.8,29.88,South,180,3.8,5.4,55,0.00,,,0.00,pywws,2013-07-20 03:08:00,
2013-07-19 23:14:00,88.0,69.8,29.88,NW,315,2.2,3.1,55,0.00,,,0.00,pywws,2013-07-20 03:14:00,
2013-07-19 23:19:00,87.8,69.6,29.88,SW,225,2.2,3.1,55,0.00,,,0.00,pywws,2013-07-20 03:19:00,
2013-07-19 23:25:00,87.6,69.9,29.89,SW,225,3.8,6.0,56,0.00,,,0.00,pywws,2013-07-20 03:25:00,
2013-07-19 23:31:00,87.4,70.3,29.89,WSW,248,1.6,3.1,57,0.00,,,0.00,pywws,2013-07-20 03:31:00,
2013-07-19 23:36:00,87.3,70.1,29.89,South,180,2.2,4.5,57,0.00,,,0.00,pywws,2013-07-20 03:36:00,
2013-07-19 23:42:00,87.3,70.6,29.89,SW,225,3.1,4.5,58,0.00,,,0.00,pywws,2013-07-20 03:42:00,
2013-07-19 23:47:00,87.1,71.0,29.89,West,270,3.1,5.4,59,0.00,,,0.00,pywws,2013-07-20 03:47:00,
2013-07-19 23:53:00,86.9,71.3,29.89,West,270,4.5,6.9,60,0.00,,,0.00,pywws,2013-07-20 03:53:00,
2013-07-19 23:59:00,86.9,71.3,29.89,West,270,4.5,6.9,60,0.00,,,0.00,pywws,2013-07-20 03:59:00,